Time,TemperatureF,DewpointF,PressureIn,WindDirection,WindDirectionDegrees,WindSpeedMPH,WindSpeedGustMPH,Humidity,HourlyPrecipIn,Conditions,Clouds,dailyrainin,SoftwareType,DateUTC
2013-06-26 00:02:00,74.0,64.7,-100.00,NE,45,0.0,0.0,73,0.00,,,0.00,WSDL version 423,2013-06-26 04:02:00,
2013-06-26 00:05:00,73.9,64.7,-100.00,NE,45,0.0,0.0,73,-99.99,,,-99.99,WSDL version 423,2013-06-26 04:05:00,
2013-06-26 00:08:00,73.8,64.6,-100.00,NE,45,0.0,0.0,74,-99.99,,,-99.99,WSDL version 423,2013-06-26 04:08:00,
2013-06-26 00:11:00,73.8,64.9,-100.00,NE,45,0.0,0.0,74,0.00,,,0.00,WSDL version 423,2013-06-26 04:11:00,
2013-06-26 00:17:00,73.8,65.0,-100.00,NE,45,0.0,0.0,74,-99.99,,,-99.99,WSDL version 423,2013-06-26 04:17:00,
2013-06-26 00:23:00,73.6,65.1,-100.00,NE,45,0.0,0.0,75,-99.99,,,-99.99,WSDL version 423,2013-06-26 04:23:00,
2013-06-26 00:29:00,73.6,65.2,-100.00,NE,45,0.0,0.0,75,0.00,,,0.00,WSDL version 423,2013-06-26 04:29:00,
2013-06-26 00:35:00,73.6,65.4,-100.00,NE,45,0.0,0.0,76,0.00,,,0.00,WSDL version 423,2013-06-26 04:35:00,
2013-06-26 00:38:00,73.6,65.6,-100.00,NE,45,0.0,0.0,76,0.00,,,0.00,WSDL version 423,2013-06-26 04:38:00,
2013-06-26 00:44:00,73.4,65.4,-100.00,NE,45,0.0,0.0,76,-99.99,,,-99.99,WSDL version 423,2013-06-26 04:44:00,
2013-06-26 00:50:00,73.4,65.5,-100.00,SE,135,0.0,0.0,77,-99.99,,,-99.99,WSDL version 423,2013-06-26 04:50:00,
2013-06-26 00:56:00,73.4,65.7,-100.00,SE,135,0.0,0.0,77,0.00,,,0.00,WSDL version 423,2013-06-26 04:56:00,
2013-06-26 01:02:00,73.2,65.6,-100.00,SE,135,0.0,0.0,77,0.00,,,0.00,WSDL version 423,2013-06-26 05:02:00,
2013-06-26 01:08:00,73.0,65.4,-100.00,SE,135,0.0,0.0,77,0.00,,,0.00,WSDL version 423,2013-06-26 05:08:00,
2013-06-26 01:14:00,73.0,65.8,-100.00,SE,135,0.0,0.0,78,-99.99,,,-99.99,WSDL version 423,2013-06-26 05:14:00,
2013-06-26 01:20:00,73.0,65.8,-100.00,SE,135,0.0,0.0,78,0.00,,,0.00,WSDL version 423,2013-06-26 05:20:00,
2013-06-26 01:26:00,73.0,65.8,-100.00,SE,135,0.0,0.0,78,-99.99,,,-99.99,WSDL version 423,2013-06-26 05:26:00,
2013-06-26 01:32:00,73.0,65.7,-100.00,SE,135,0.0,0.0,78,-99.99,,,-99.99,WSDL version 423,2013-06-26 05:32:00,
2013-06-26 01:38:00,72.9,66.0,-100.00,SE,135,0.0,0.0,79,-99.99,,,-99.99,WSDL version 423,2013-06-26 05:38:00,
2013-06-26 01:44:00,72.9,66.0,-100.00,SE,135,0.0,0.0,79,-99.99,,,-99.99,WSDL version 423,2013-06-26 05:44:00,
2013-06-26 01:50:00,72.9,66.0,-100.00,SE,135,0.0,0.0,79,-99.99,,,-99.99,WSDL version 423,2013-06-26 05:50:00,
2013-06-26 01:56:00,72.9,66.0,-100.00,SE,135,0.0,0.0,79,-99.99,,,-99.99,WSDL version 423,2013-06-26 05:56:00,
2013-06-26 02:02:00,72.7,65.8,-100.00,South,169,0.0,0.0,79,-99.99,,,-99.99,WSDL version 423,2013-06-26 06:02:00,
2013-06-26 02:08:00,72.7,65.8,-100.00,SSE,152,0.0,1.1,79,-99.99,,,-99.99,WSDL version 423,2013-06-26 06:08:00,
2013-06-26 02:14:00,72.8,66.3,-100.00,SE,129,0.3,2.9,80,-99.99,,,-99.99,WSDL version 423,2013-06-26 06:14:00,
2013-06-26 02:20:00,72.9,66.2,-100.00,SSE,163,0.2,2.9,79,-99.99,,,-99.99,WSDL version 423,2013-06-26 06:20:00,
2013-06-26 02:26:00,73.0,66.1,-100.00,SSE,149,0.0,2.2,79,-99.99,,,-99.99,WSDL version 423,2013-06-26 06:26:00,
2013-06-26 02:32:00,73.0,66.1,-100.00,South,170,2.0,4.7,79,-99.99,,,-99.99,WSDL version 423,2013-06-26 06:32:00,
2013-06-26 02:38:00,73.1,66.2,-100.00,SE,141,1.5,4.7,79,-99.99,,,-99.99,WSDL version 423,2013-06-26 06:38:00,
2013-06-26 02:44:00,73.2,66.1,-100.00,South,180,0.3,3.6,78,-99.99,,,-99.99,WSDL version 423,2013-06-26 06:44:00,
2013-06-26 02:50:00,73.0,65.8,-100.00,South,174,1.3,3.8,78,-99.99,,,-99.99,WSDL version 423,2013-06-26 06:50:00,
2013-06-26 02:56:00,73.0,65.5,-100.00,South,170,0.8,3.8,77,0.00,,,0.00,WSDL version 423,2013-06-26 06:56:00,
2013-06-26 03:02:00,72.8,65.2,-100.00,SSE,165,0.5,4.0,78,0.00,,,0.00,WSDL version 423,2013-06-26 07:02:00,
2013-06-26 03:08:00,72.7,65.2,-100.00,SSE,163,0.8,4.0,77,-99.99,,,-99.99,WSDL version 423,2013-06-26 07:08:00,
2013-06-26 03:14:00,72.6,65.0,-100.00,SE,143,0.3,2.9,77,-99.99,,,-99.99,WSDL version 423,2013-06-26 07:14:00,
2013-06-26 03:20:00,72.5,64.9,-100.00,SE,128,1.0,3.4,77,0.00,,,0.00,WSDL version 423,2013-06-26 07:20:00,
2013-06-26 03:26:00,72.5,64.9,-100.00,ESE,116,0.8,3.4,77,0.00,,,0.00,WSDL version 423,2013-06-26 07:26:00,
2013-06-26 03:32:00,72.5,64.9,-100.00,SSE,158,0.5,4.0,77,0.00,,,0.00,WSDL version 423,2013-06-26 07:32:00,
2013-06-26 03:38:00,72.3,64.6,-100.00,SSW,198,0.0,2.9,76,-99.99,,,-99.99,WSDL version 423,2013-06-26 07:38:00,
2013-06-26 03:44:00,72.2,64.4,-100.00,South,180,0.0,1.1,76,-99.99,,,-99.99,WSDL version 423,2013-06-26 07:44:00,
2013-06-26 03:50:00,72.0,64.0,-100.00,South,180,0.0,2.5,76,-99.99,,,-99.99,WSDL version 423,2013-06-26 07:50:00,
2013-06-26 03:56:00,71.8,63.8,-100.00,South,169,0.3,4.0,76,-99.99,,,-99.99,WSDL version 423,2013-06-26 07:56:00,
2013-06-26 04:02:00,71.8,64.0,-100.00,SSE,158,1.8,4.0,76,-99.99,,,-99.99,WSDL version 423,2013-06-26 08:02:00,
2013-06-26 04:08:00,71.8,63.8,-100.00,South,177,0.6,3.8,76,0.00,,,0.00,WSDL version 423,2013-06-26 08:08:00,
2013-06-26 04:14:00,71.6,63.7,-100.00,SSE,154,0.0,3.1,76,-99.99,,,-99.99,WSDL version 423,2013-06-26 08:14:00,
2013-06-26 04:20:00,71.6,63.6,-100.00,SE,143,0.1,2.7,76,-99.99,,,-99.99,WSDL version 423,2013-06-26 08:20:00,
2013-06-26 04:26:00,71.6,63.6,-100.00,North,10,0.9,4.0,75,-99.99,,,-99.99,WSDL version 423,2013-06-26 08:26:00,
2013-06-26 04:32:00,71.6,63.3,-100.00,SE,141,1.4,4.0,75,-99.99,,,-99.99,WSDL version 423,2013-06-26 08:32:00,
2013-06-26 04:38:00,71.6,63.3,-100.00,SE,143,0.1,3.6,75,0.00,,,0.00,WSDL version 423,2013-06-26 08:38:00,
2013-06-26 04:44:00,71.6,63.3,-100.00,South,173,0.7,3.6,75,-99.99,,,-99.99,WSDL version 423,2013-06-26 08:44:00,
2013-06-26 04:50:00,71.5,63.1,-100.00,SE,129,0.8,2.7,75,0.00,,,0.00,WSDL version 423,2013-06-26 08:50:00,
2013-06-26 04:56:00,71.4,63.1,-100.00,SE,141,0.8,2.7,75,-99.99,,,-99.99,WSDL version 423,2013-06-26 08:56:00,
2013-06-26 05:02:00,71.3,62.9,-100.00,SSE,160,0.0,2.9,75,-99.99,,,-99.99,WSDL version 423,2013-06-26 09:02:00,
2013-06-26 05:08:00,71.2,62.9,-100.00,SE,145,0.0,2.7,75,-99.99,,,-99.99,WSDL version 423,2013-06-26 09:08:00,
2013-06-26 05:14:00,71.2,62.9,-100.00,SSE,154,0.5,2.7,75,-99.99,,,-99.99,WSDL version 423,2013-06-26 09:14:00,
2013-06-26 05:20:00,71.2,62.9,-100.00,South,180,0.0,2.7,75,0.00,,,0.00,WSDL version 423,2013-06-26 09:20:00,
2013-06-26 05:26:00,71.2,62.9,-100.00,SSE,158,0.2,3.1,75,-99.99,,,-99.99,WSDL version 423,2013-06-26 09:26:00,
2013-06-26 05:32:00,71.2,62.9,-100.00,South,170,0.3,3.4,75,-99.99,,,-99.99,WSDL version 423,2013-06-26 09:32:00,
2013-06-26 05:38:00,71.2,62.5,-100.00,SSE,164,0.5,4.3,74,0.00,,,0.00,WSDL version 423,2013-06-26 09:38:00,
2013-06-26 05:44:00,71.2,62.5,-100.00,SE,135,0.0,2.9,74,0.00,,,0.00,WSDL version 423,2013-06-26 09:44:00,
2013-06-26 05:50:00,71.2,62.5,-100.00,SE,135,0.0,1.6,74,-99.99,,,-99.99,WSDL version 423,2013-06-26 09:50:00,
2013-06-26 05:56:00,71.2,62.5,-100.00,South,180,0.0,1.6,74,-99.99,,,-99.99,WSDL version 423,2013-06-26 09:56:00,
2013-06-26 06:02:00,71.2,62.5,-100.00,ESE,123,0.0,1.3,74,0.00,,,0.00,WSDL version 423,2013-06-26 10:02:00,
2013-06-26 06:08:00,71.2,62.5,-100.00,East,90,0.0,1.3,74,-99.99,,,-99.99,WSDL version 423,2013-06-26 10:08:00,
2013-06-26 06:14:00,71.2,62.5,-100.00,SE,138,0.0,0.0,74,-99.99,,,-99.99,WSDL version 423,2013-06-26 10:14:00,
2013-06-26 06:20:00,71.2,62.5,-100.00,South,174,0.6,2.2,74,-99.99,,,-99.99,WSDL version 423,2013-06-26 10:20:00,
2013-06-26 06:26:00,71.4,62.7,-100.00,ESE,118,0.0,2.2,74,-99.99,,,-99.99,WSDL version 423,2013-06-26 10:26:00,
2013-06-26 06:32:00,71.4,62.4,-100.00,SSE,152,0.5,2.7,73,-99.99,,,-99.99,WSDL version 423,2013-06-26 10:32:00,
2013-06-26 06:38:00,71.4,62.3,-100.00,South,174,0.0,2.7,73,-99.99,,,-99.99,WSDL version 423,2013-06-26 10:38:00,
2013-06-26 06:44:00,71.4,62.3,-100.00,SE,135,0.0,1.3,73,-99.99,,,-99.99,WSDL version 423,2013-06-26 10:44:00,
2013-06-26 06:50:00,71.4,62.3,-100.00,SE,141,0.0,1.3,73,-99.99,,,-99.99,WSDL version 423,2013-06-26 10:50:00,
2013-06-26 06:56:00,71.4,62.3,-100.00,SSE,163,0.8,2.7,73,-99.99,,,-99.99,WSDL version 423,2013-06-26 10:56:00,
2013-06-26 07:02:00,71.5,62.4,-100.00,South,169,1.1,3.8,73,-99.99,,,-99.99,WSDL version 423,2013-06-26 11:02:00,
2013-06-26 07:08:00,71.6,62.5,-100.00,SSE,158,1.5,3.8,73,0.00,,,0.00,WSDL version 423,2013-06-26 11:08:00,
2013-06-26 07:14:00,71.8,62.7,-100.00,South,174,1.2,3.8,73,-99.99,,,-99.99,WSDL version 423,2013-06-26 11:14:00,
2013-06-26 07:20:00,72.0,62.4,-100.00,South,172,2.3,3.8,72,-99.99,,,-99.99,WSDL version 423,2013-06-26 11:20:00,
2013-06-26 07:26:00,72.2,62.6,-100.00,South,170,0.7,3.8,72,-99.99,,,-99.99,WSDL version 423,2013-06-26 11:26:00,
2013-06-26 07:32:00,72.4,62.8,-100.00,SSE,148,1.8,4.3,72,0.00,,,0.00,WSDL version 423,2013-06-26 11:32:00,
2013-06-26 07:38:00,72.6,62.9,-100.00,East,96,1.7,4.5,71,0.00,,,0.00,WSDL version 423,2013-06-26 11:38:00,
2013-06-26 07:44:00,72.9,63.0,-100.00,SE,141,1.1,4.5,71,0.00,,,0.00,WSDL version 423,2013-06-26 11:44:00,
2013-06-26 07:50:00,73.2,63.2,-100.00,ENE,65,0.0,3.6,71,-99.99,,,-99.99,WSDL version 423,2013-06-26 11:50:00,
2013-06-26 07:56:00,73.4,63.1,-100.00,SE,138,0.2,3.1,70,-99.99,,,-99.99,WSDL version 423,2013-06-26 11:56:00,
2013-06-26 08:02:00,73.6,63.2,-100.00,East,90,0.0,2.9,70,-99.99,,,-99.99,WSDL version 423,2013-06-26 12:02:00,
2013-06-26 08:08:00,73.9,63.5,-100.00,SE,141,0.8,2.7,70,-99.99,,,-99.99,WSDL version 423,2013-06-26 12:08:00,
2013-06-26 08:14:00,74.3,63.7,-100.00,ESE,123,1.1,2.7,69,-99.99,,,-99.99,WSDL version 423,2013-06-26 12:14:00,
2013-06-26 08:20:00,74.6,63.5,-100.00,SE,131,2.5,4.5,68,-99.99,,,-99.99,WSDL version 423,2013-06-26 12:20:00,
2013-06-26 08:26:00,75.2,63.9,-100.00,SE,127,0.3,4.5,68,-99.99,,,-99.99,WSDL version 423,2013-06-26 12:26:00,
2013-06-26 08:32:00,75.7,64.1,-100.00,South,180,0.0,3.4,67,-99.99,,,-99.99,WSDL version 423,2013-06-26 12:32:00,
2013-06-26 08:38:00,75.8,64.1,-100.00,South,172,0.8,3.4,67,-99.99,,,-99.99,WSDL version 423,2013-06-26 12:38:00,
2013-06-26 08:44:00,76.2,63.9,-100.00,ESE,104,2.4,5.8,65,-99.99,,,-99.99,WSDL version 423,2013-06-26 12:44:00,
2013-06-26 08:50:00,76.7,64.5,-100.00,SSE,151,1.1,5.8,66,0.00,,,0.00,WSDL version 423,2013-06-26 12:50:00,
2013-06-26 08:56:00,76.8,64.6,-100.00,SSE,166,0.2,3.8,66,-99.99,,,-99.99,WSDL version 423,2013-06-26 12:56:00,
2013-06-26 09:02:00,76.8,64.5,-100.00,SE,127,1.3,4.0,65,-99.99,,,-99.99,WSDL version 423,2013-06-26 13:02:00,
2013-06-26 09:08:00,76.9,64.3,-100.00,SE,135,0.0,4.0,66,-99.99,,,-99.99,WSDL version 423,2013-06-26 13:08:00,
2013-06-26 09:14:00,77.2,64.5,-100.00,NW,312,1.6,3.6,65,-99.99,,,-99.99,WSDL version 423,2013-06-26 13:14:00,
2013-06-26 09:20:00,77.7,65.0,-100.00,SSE,148,0.7,4.0,65,0.00,,,0.00,WSDL version 423,2013-06-26 13:20:00,
2013-06-26 09:26:00,78.0,64.8,-100.00,SSE,158,0.7,6.0,64,-99.99,,,-99.99,WSDL version 423,2013-06-26 13:26:00,
2013-06-26 09:32:00,78.1,64.9,-100.00,South,172,1.0,6.0,64,-99.99,,,-99.99,WSDL version 423,2013-06-26 13:32:00,
2013-06-26 09:38:00,78.5,64.9,-100.00,SSW,197,0.4,3.8,63,-99.99,,,-99.99,WSDL version 423,2013-06-26 13:38:00,
2013-06-26 09:44:00,79.0,65.3,-100.00,South,180,0.0,3.4,63,-99.99,,,-99.99,WSDL version 423,2013-06-26 13:44:00,
2013-06-26 09:50:00,79.8,65.8,-100.00,SSE,153,2.2,7.2,62,-99.99,,,-99.99,WSDL version 423,2013-06-26 13:50:00,
2013-06-26 09:56:00,80.1,65.1,-100.00,SSE,154,3.3,7.2,61,-99.99,,,-99.99,WSDL version 423,2013-06-26 13:56:00,
2013-06-26 10:02:00,80.6,65.2,-100.00,ESE,115,0.9,6.7,60,-99.99,,,-99.99,WSDL version 423,2013-06-26 14:02:00,
2013-06-26 10:08:00,81.0,65.6,-100.00,SSE,161,0.9,6.5,59,-99.99,,,-99.99,WSDL version 423,2013-06-26 14:08:00,
2013-06-26 10:14:00,81.3,65.7,-100.00,SSW,211,1.7,6.5,59,-99.99,,,-99.99,WSDL version 423,2013-06-26 14:14:00,
2013-06-26 10:20:00,81.7,65.8,-100.00,SE,140,2.6,6.0,58,-99.99,,,-99.99,WSDL version 423,2013-06-26 14:20:00,
2013-06-26 10:26:00,82.3,65.9,-100.00,South,174,2.0,6.0,58,-99.99,,,-99.99,WSDL version 423,2013-06-26 14:26:00,
2013-06-26 10:32:00,82.7,65.3,-100.00,SE,125,1.5,5.4,55,-99.99,,,-99.99,WSDL version 423,2013-06-26 14:32:00,
2013-06-26 10:38:00,82.6,64.5,-100.00,South,175,0.1,6.9,56,-99.99,,,-99.99,WSDL version 423,2013-06-26 14:38:00,
2013-06-26 10:44:00,82.8,64.8,-100.00,South,183,2.4,6.0,55,-99.99,,,-99.99,WSDL version 423,2013-06-26 14:44:00,
2013-06-26 10:50:00,82.6,64.4,-100.00,SE,127,2.4,6.0,54,-99.99,,,-99.99,WSDL version 423,2013-06-26 14:50:00,
2013-06-26 10:56:00,83.2,64.9,-100.00,ENE,68,2.0,6.5,52,-99.99,,,-99.99,WSDL version 423,2013-06-26 14:56:00,
2013-06-26 11:02:00,82.9,64.9,-100.00,SSE,158,0.1,6.5,55,-99.99,,,-99.99,WSDL version 423,2013-06-26 15:02:00,
2013-06-26 11:08:00,82.5,63.9,-100.00,SSE,164,0.6,6.0,55,-99.99,,,-99.99,WSDL version 423,2013-06-26 15:08:00,
2013-06-26 11:14:00,82.3,64.5,-100.00,South,172,0.1,2.9,55,-99.99,,,-99.99,WSDL version 423,2013-06-26 15:14:00,
2013-06-26 11:20:00,82.5,64.7,-100.00,South,180,0.3,2.7,55,-99.99,,,-99.99,WSDL version 423,2013-06-26 15:20:00,
2013-06-26 11:26:00,82.5,64.6,-100.00,SSE,151,2.5,5.4,55,-99.99,,,-99.99,WSDL version 423,2013-06-26 15:26:00,
2013-06-26 11:32:00,82.3,64.5,-100.00,SSE,154,1.2,5.4,55,-99.99,,,-99.99,WSDL version 423,2013-06-26 15:32:00,
2013-06-26 11:38:00,82.0,63.4,-100.00,SSE,160,2.2,4.3,54,-99.99,,,-99.99,WSDL version 423,2013-06-26 15:38:00,
2013-06-26 11:44:00,81.7,63.5,-100.00,South,175,0.5,3.4,55,-99.99,,,-99.99,WSDL version 423,2013-06-26 15:44:00,
2013-06-26 11:50:00,81.8,64.1,-100.00,SE,139,1.5,3.6,55,-99.99,,,-99.99,WSDL version 423,2013-06-26 15:50:00,
2013-06-26 11:56:00,81.4,63.6,-100.00,SSE,158,1.1,4.0,55,-99.99,,,-99.99,WSDL version 423,2013-06-26 15:56:00,
2013-06-26 12:02:00,81.0,63.2,-100.00,South,180,1.6,5.8,54,-99.99,,,-99.99,WSDL version 423,2013-06-26 16:02:00,
2013-06-26 12:08:00,81.0,63.3,-100.00,SE,129,1.6,5.6,55,-99.99,,,-99.99,WSDL version 423,2013-06-26 16:08:00,
2013-06-26 12:14:00,81.2,62.9,-100.00,SE,135,2.2,5.6,54,-99.99,,,-99.99,WSDL version 423,2013-06-26 16:14:00,
2013-06-26 12:20:00,81.6,63.6,-100.00,SSE,152,0.0,4.0,55,-99.99,,,-99.99,WSDL version 423,2013-06-26 16:20:00,
2013-06-26 12:26:00,82.1,64.4,-100.00,WNW,283,1.0,4.3,54,-99.99,,,-99.99,WSDL version 423,2013-06-26 16:26:00,
2013-06-26 12:32:00,82.0,64.3,-100.00,South,180,1.3,4.3,55,0.00,,,0.00,WSDL version 423,2013-06-26 16:32:00,
2013-06-26 12:38:00,82.4,64.5,-100.00,SE,146,0.3,3.6,54,-99.99,,,-99.99,WSDL version 423,2013-06-26 16:38:00,
2013-06-26 12:44:00,82.9,65.1,-100.00,South,184,0.8,2.9,55,-99.99,,,-99.99,WSDL version 423,2013-06-26 16:44:00,
2013-06-26 12:50:00,83.4,65.5,-100.00,South,180,0.0,2.7,55,-99.99,,,-99.99,WSDL version 423,2013-06-26 16:50:00,
2013-06-26 12:56:00,83.7,65.8,-100.00,SE,141,0.1,3.4,55,-99.99,,,-99.99,WSDL version 423,2013-06-26 16:56:00,
2013-06-26 13:02:00,84.0,65.9,-100.00,SSW,208,1.0,3.4,54,-99.99,,,-99.99,WSDL version 423,2013-06-26 17:02:00,
2013-06-26 13:08:00,83.8,64.9,-100.00,South,177,1.2,2.9,53,-99.99,,,-99.99,WSDL version 423,2013-06-26 17:08:00,
2013-06-26 13:14:00,83.5,64.8,-100.00,SSW,203,0.0,2.9,53,-99.99,,,-99.99,WSDL version 423,2013-06-26 17:14:00,
2013-06-26 13:20:00,83.2,64.8,-100.00,SSE,154,1.3,2.9,54,-99.99,,,-99.99,WSDL version 423,2013-06-26 17:20:00,
2013-06-26 13:26:00,83.5,65.1,-100.00,SSE,151,0.0,4.3,54,-99.99,,,-99.99,WSDL version 423,2013-06-26 17:26:00,
2013-06-26 13:32:00,84.0,65.5,-100.00,SE,125,0.0,2.5,54,-99.99,,,-99.99,WSDL version 423,2013-06-26 17:32:00,
2013-06-26 13:38:00,84.4,65.4,-100.00,South,180,0.6,3.1,53,-99.99,,,-99.99,WSDL version 423,2013-06-26 17:38:00,
2013-06-26 13:44:00,84.7,66.1,-100.00,SSW,200,0.0,2.7,54,-99.99,,,-99.99,WSDL version 423,2013-06-26 17:44:00,
2013-06-26 13:50:00,84.6,65.6,-100.00,South,180,0.3,5.6,53,-99.99,,,-99.99,WSDL version 423,2013-06-26 17:50:00,
2013-06-26 13:56:00,84.4,65.4,-100.00,SSE,162,0.2,5.6,53,-99.99,,,-99.99,WSDL version 423,2013-06-26 17:56:00,
2013-06-26 14:02:00,84.0,65.1,-100.00,South,177,0.9,3.6,53,-99.99,,,-99.99,WSDL version 423,2013-06-26 18:02:00,
2013-06-26 14:08:00,83.7,64.7,-100.00,SSE,165,0.4,3.6,53,-99.99,,,-99.99,WSDL version 423,2013-06-26 18:08:00,
2013-06-26 14:14:00,83.7,64.6,-100.00,SE,141,0.6,3.6,53,-99.99,,,-99.99,WSDL version 423,2013-06-26 18:14:00,
2013-06-26 14:20:00,83.9,64.9,-100.00,South,180,0.4,2.7,53,-99.99,,,-99.99,WSDL version 423,2013-06-26 18:20:00,
2013-06-26 14:26:00,84.0,65.6,-100.00,SSE,155,0.4,2.9,54,-99.99,,,-99.99,WSDL version 423,2013-06-26 18:26:00,
2013-06-26 14:32:00,84.0,64.9,-100.00,South,180,1.4,3.1,53,-99.99,,,-99.99,WSDL version 423,2013-06-26 18:32:00,
2013-06-26 14:38:00,83.7,64.7,-100.00,South,174,0.8,3.1,53,-99.99,,,-99.99,WSDL version 423,2013-06-26 18:38:00,
2013-06-26 14:44:00,83.7,64.8,-100.00,South,180,1.6,3.1,53,-99.99,,,-99.99,WSDL version 423,2013-06-26 18:44:00,
2013-06-26 14:50:00,84.0,65.2,-100.00,SE,146,0.0,2.9,53,-99.99,,,-99.99,WSDL version 423,2013-06-26 18:50:00,
2013-06-26 14:56:00,85.0,65.9,-100.00,West,264,0.0,1.1,53,0.00,,,0.00,WSDL version 423,2013-06-26 18:56:00,
2013-06-26 15:02:00,85.6,65.8,-100.00,South,188,1.6,4.9,51,0.00,,,0.00,WSDL version 423,2013-06-26 19:02:00,
2013-06-26 15:08:00,85.2,65.5,-100.00,South,180,0.6,4.9,52,-99.99,,,-99.99,WSDL version 423,2013-06-26 19:08:00,
2013-06-26 15:14:00,86.3,66.1,-100.00,SSW,203,0.9,5.4,51,-99.99,,,-99.99,WSDL version 423,2013-06-26 19:14:00,
2013-06-26 15:20:00,87.7,67.1,-100.00,SSE,166,0.9,3.8,50,-99.99,,,-99.99,WSDL version 423,2013-06-26 19:20:00,
2013-06-26 15:26:00,89.0,67.8,-100.00,SSE,155,1.0,3.4,50,-99.99,,,-99.99,WSDL version 423,2013-06-26 19:26:00,
2013-06-26 15:32:00,88.8,67.8,-100.00,SE,129,0.1,2.9,50,-99.99,,,-99.99,WSDL version 423,2013-06-26 19:32:00,
2013-06-26 15:38:00,89.2,67.6,-100.00,SSE,158,2.2,4.9,49,-99.99,,,-99.99,WSDL version 423,2013-06-26 19:38:00,
2013-06-26 15:44:00,89.2,67.7,-100.00,SSW,193,2.3,4.9,49,-99.99,,,-99.99,WSDL version 423,2013-06-26 19:44:00,
2013-06-26 15:50:00,89.9,68.4,-100.00,WSW,253,0.0,4.0,49,-99.99,,,-99.99,WSDL version 423,2013-06-26 19:50:00,
2013-06-26 15:56:00,90.1,67.5,-100.00,South,185,0.2,3.4,47,-99.99,,,-99.99,WSDL version 423,2013-06-26 19:56:00,
2013-06-26 16:02:00,90.3,66.8,-100.00,ESE,119,1.7,4.3,46,-99.99,,,-99.99,WSDL version 423,2013-06-26 20:02:00,
2013-06-26 16:08:00,90.5,67.3,-100.00,SSE,168,0.0,4.3,47,-99.99,,,-99.99,WSDL version 423,2013-06-26 20:08:00,
2013-06-26 16:14:00,91.2,66.2,-100.00,ESE,122,3.1,6.3,44,-99.99,,,-99.99,WSDL version 423,2013-06-26 20:14:00,
2013-06-26 16:20:00,90.1,64.2,-100.00,South,190,3.3,7.6,44,-99.99,,,-99.99,WSDL version 423,2013-06-26 20:20:00,
2013-06-26 16:26:00,89.1,64.9,-100.00,East,98,1.8,7.6,45,-99.99,,,-99.99,WSDL version 423,2013-06-26 20:26:00,
2013-06-26 16:32:00,88.6,65.1,-100.00,South,177,0.6,4.3,46,0.00,,,0.00,WSDL version 423,2013-06-26 20:32:00,
2013-06-26 16:38:00,88.5,64.7,-100.00,South,186,0.9,4.3,46,-99.99,,,-99.99,WSDL version 423,2013-06-26 20:38:00,
2013-06-26 16:44:00,88.6,64.9,-100.00,SSW,200,2.2,4.9,45,0.00,,,0.00,WSDL version 423,2013-06-26 20:44:00,
2013-06-26 16:50:00,88.5,64.3,-100.00,SSE,155,2.8,6.9,44,-99.99,,,-99.99,WSDL version 423,2013-06-26 20:50:00,
2013-06-26 16:56:00,88.2,64.1,-100.00,SSE,165,3.0,6.9,45,-99.99,,,-99.99,WSDL version 423,2013-06-26 20:56:00,
2013-06-26 17:02:00,88.8,65.1,-100.00,South,173,2.5,5.6,45,-99.99,,,-99.99,WSDL version 423,2013-06-26 21:02:00,
2013-06-26 17:08:00,89.3,64.7,-100.00,ESE,109,1.7,4.7,44,-99.99,,,-99.99,WSDL version 423,2013-06-26 21:08:00,
2013-06-26 17:14:00,90.6,66.2,-100.00,South,173,0.1,4.7,44,-99.99,,,-99.99,WSDL version 423,2013-06-26 21:14:00,
2013-06-26 17:20:00,91.4,66.4,-100.00,South,174,0.2,3.1,44,-99.99,,,-99.99,WSDL version 423,2013-06-26 21:20:00,
2013-06-26 17:26:00,90.5,64.6,-100.00,SSE,158,1.2,6.0,43,-99.99,,,-99.99,WSDL version 423,2013-06-26 21:26:00,
2013-06-26 17:32:00,89.8,64.1,-100.00,SE,128,1.6,6.0,44,-99.99,,,-99.99,WSDL version 423,2013-06-26 21:32:00,
2013-06-26 17:38:00,89.7,64.8,-100.00,South,180,0.7,3.4,44,-99.99,,,-99.99,WSDL version 423,2013-06-26 21:38:00,
2013-06-26 17:44:00,90.1,65.1,-100.00,NNW,347,1.6,4.3,43,-99.99,,,-99.99,WSDL version 423,2013-06-26 21:44:00,
2013-06-26 17:50:00,90.2,64.6,-100.00,SE,127,0.6,4.9,42,-99.99,,,-99.99,WSDL version 423,2013-06-26 21:50:00,
2013-06-26 17:56:00,89.6,64.1,-100.00,SE,138,0.2,4.0,43,-99.99,,,-99.99,WSDL version 423,2013-06-26 21:56:00,
2013-06-26 18:02:00,88.8,63.8,-100.00,ESE,109,0.0,4.3,44,-99.99,,,-99.99,WSDL version 423,2013-06-26 22:02:00,
2013-06-26 18:08:00,87.8,62.4,-100.00,SE,138,1.6,4.0,44,-99.99,,,-99.99,WSDL version 423,2013-06-26 22:08:00,
2013-06-26 18:14:00,87.1,63.0,-100.00,ESE,107,0.0,4.0,45,0.00,,,0.00,WSDL version 423,2013-06-26 22:14:00,
2013-06-26 18:20:00,86.7,62.1,-100.00,SSE,151,1.5,3.4,44,-99.99,,,-99.99,WSDL version 423,2013-06-26 22:20:00,
2013-06-26 18:26:00,86.2,61.5,-100.00,SE,141,1.8,3.8,44,-99.99,,,-99.99,WSDL version 423,2013-06-26 22:26:00,
2013-06-26 18:32:00,86.0,61.8,-100.00,NNW,332,0.8,3.8,45,-99.99,,,-99.99,WSDL version 423,2013-06-26 22:32:00,
2013-06-26 18:38:00,86.0,62.2,-100.00,ESE,116,0.5,4.3,45,-99.99,,,-99.99,WSDL version 423,2013-06-26 22:38:00,
2013-06-26 18:44:00,85.8,62.7,-100.00,NE,45,0.4,4.3,46,-99.99,,,-99.99,WSDL version 423,2013-06-26 22:44:00,
2013-06-26 18:50:00,85.6,62.5,-100.00,NE,45,0.0,2.9,46,-99.99,,,-99.99,WSDL version 423,2013-06-26 22:50:00,
2013-06-26 18:56:00,85.4,62.4,-100.00,SSE,148,0.0,2.9,46,0.00,,,0.00,WSDL version 423,2013-06-26 22:56:00,
2013-06-26 19:02:00,86.0,63.2,-100.00,East,90,0.0,0.0,47,-99.99,,,-99.99,WSDL version 423,2013-06-26 23:02:00,
2013-06-26 19:08:00,86.5,63.9,-100.00,SE,132,0.0,0.0,47,-99.99,,,-99.99,WSDL version 423,2013-06-26 23:08:00,
2013-06-26 19:14:00,86.5,63.2,-100.00,South,172,0.0,2.7,46,-99.99,,,-99.99,WSDL version 423,2013-06-26 23:14:00,
2013-06-26 19:20:00,86.3,63.1,-100.00,East,90,0.0,0.0,46,-99.99,,,-99.99,WSDL version 423,2013-06-26 23:20:00,
2013-06-26 19:26:00,85.9,63.1,-100.00,South,170,0.0,0.0,47,0.00,,,0.00,WSDL version 423,2013-06-26 23:26:00,
2013-06-26 19:32:00,85.7,63.2,-100.00,East,90,0.0,0.0,47,-99.99,,,-99.99,WSDL version 423,2013-06-26 23:32:00,
2013-06-26 19:38:00,85.7,63.4,-100.00,South,180,0.0,0.0,48,-99.99,,,-99.99,WSDL version 423,2013-06-26 23:38:00,
2013-06-26 19:44:00,85.4,63.8,-100.00,South,180,0.0,0.0,49,0.00,,,0.00,WSDL version 423,2013-06-26 23:44:00,
2013-06-26 19:50:00,84.7,63.4,-100.00,South,180,0.0,0.0,49,-99.99,,,-99.99,WSDL version 423,2013-06-26 23:50:00,
2013-06-26 19:56:00,83.8,63.4,-100.00,East,90,0.0,0.0,51,0.00,,,0.00,WSDL version 423,2013-06-26 23:56:00,
2013-06-26 20:02:00,83.3,63.5,-100.00,East,90,0.0,0.0,52,-99.99,,,-99.99,WSDL version 423,2013-06-27 00:02:00,
2013-06-26 20:08:00,82.8,63.4,-100.00,East,90,0.0,0.0,52,-99.99,,,-99.99,WSDL version 423,2013-06-27 00:08:00,
2013-06-26 20:14:00,82.2,63.2,-100.00,East,90,0.0,0.0,53,-99.99,,,-99.99,WSDL version 423,2013-06-27 00:14:00,
2013-06-26 20:20:00,81.7,63.3,-100.00,East,90,0.0,0.0,54,-99.99,,,-99.99,WSDL version 423,2013-06-27 00:20:00,
2013-06-26 20:26:00,81.2,63.0,-100.00,East,90,0.0,0.0,54,-99.99,,,-99.99,WSDL version 423,2013-06-27 00:26:00,
2013-06-26 20:32:00,80.8,63.2,-100.00,East,90,0.0,0.0,55,-99.99,,,-99.99,WSDL version 423,2013-06-27 00:32:00,
2013-06-26 20:38:00,80.5,63.3,-100.00,East,90,0.0,0.0,56,-99.99,,,-99.99,WSDL version 423,2013-06-27 00:38:00,
2013-06-26 20:44:00,80.2,63.3,-100.00,East,90,0.0,0.0,57,-99.99,,,-99.99,WSDL version 423,2013-06-27 00:44:00,
2013-06-26 20:50:00,80.1,63.5,-100.00,East,90,0.0,0.0,57,0.00,,,0.00,WSDL version 423,2013-06-27 00:50:00,
2013-06-26 20:56:00,79.9,63.8,-100.00,East,90,0.0,0.0,58,-99.99,,,-99.99,WSDL version 423,2013-06-27 00:56:00,
2013-06-26 21:02:00,79.8,63.7,-100.00,NE,45,0.0,0.0,58,-99.99,,,-99.99,WSDL version 423,2013-06-27 01:02:00,
2013-06-26 21:08:00,79.5,63.9,-100.00,South,180,0.0,0.0,59,-99.99,,,-99.99,WSDL version 423,2013-06-27 01:08:00,
2013-06-26 21:14:00,79.3,63.8,-100.00,South,180,0.0,0.0,59,-99.99,,,-99.99,WSDL version 423,2013-06-27 01:14:00,
2013-06-26 21:20:00,79.1,64.0,-100.00,South,172,0.0,0.0,60,-99.99,,,-99.99,WSDL version 423,2013-06-27 01:20:00,
2013-06-26 21:26:00,79.0,64.0,-100.00,SSE,158,0.0,0.0,61,-99.99,,,-99.99,WSDL version 423,2013-06-27 01:26:00,
2013-06-26 21:32:00,78.8,64.1,-100.00,SE,129,0.0,0.9,61,-99.99,,,-99.99,WSDL version 423,2013-06-27 01:32:00,
2013-06-26 21:38:00,78.6,64.0,-100.00,ESE,113,0.0,0.9,61,-99.99,,,-99.99,WSDL version 423,2013-06-27 01:38:00,
2013-06-26 21:44:00,78.4,63.8,-100.00,South,180,0.0,0.0,61,-99.99,,,-99.99,WSDL version 423,2013-06-27 01:44:00,
2013-06-26 21:50:00,78.1,64.0,-100.00,South,180,0.0,0.0,62,-99.99,,,-99.99,WSDL version 423,2013-06-27 01:50:00,
2013-06-26 21:56:00,78.1,64.0,-100.00,South,180,0.0,0.0,62,0.00,,,0.00,WSDL version 423,2013-06-27 01:56:00,
2013-06-26 22:02:00,77.8,63.7,-100.00,South,180,0.0,0.0,62,-99.99,,,-99.99,WSDL version 423,2013-06-27 02:02:00,
2013-06-26 22:08:00,77.7,63.7,-100.00,South,180,0.0,0.0,63,0.00,,,0.00,WSDL version 423,2013-06-27 02:08:00,
2013-06-26 22:14:00,77.5,64.0,-100.00,ESE,113,0.0,0.0,63,-99.99,,,-99.99,WSDL version 423,2013-06-27 02:14:00,
2013-06-26 22:20:00,77.5,64.0,-100.00,ESE,113,0.0,0.0,63,-99.99,,,-99.99,WSDL version 423,2013-06-27 02:20:00,
2013-06-26 22:26:00,77.4,63.8,-100.00,ESE,113,0.0,0.0,63,-99.99,,,-99.99,WSDL version 423,2013-06-27 02:26:00,
2013-06-26 22:32:00,77.3,64.2,-100.00,ESE,113,0.0,0.0,64,0.00,,,0.00,WSDL version 423,2013-06-27 02:32:00,
2013-06-26 22:38:00,77.2,64.1,-100.00,ESE,113,0.0,0.0,64,0.00,,,0.00,WSDL version 423,2013-06-27 02:38:00,
2013-06-26 22:44:00,77.2,64.1,-100.00,ESE,113,0.0,0.0,64,-99.99,,,-99.99,WSDL version 423,2013-06-27 02:44:00,
2013-06-26 22:50:00,77.2,64.5,-100.00,ESE,113,0.0,0.0,65,-99.99,,,-99.99,WSDL version 423,2013-06-27 02:50:00,
2013-06-26 22:56:00,77.2,64.6,-100.00,ESE,113,0.0,0.0,65,-99.99,,,-99.99,WSDL version 423,2013-06-27 02:56:00,
2013-06-26 23:02:00,77.2,64.5,-100.00,SSW,203,0.0,0.0,65,0.00,,,0.00,WSDL version 423,2013-06-27 03:02:00,
2013-06-26 23:08:00,77.2,64.5,-100.00,SSW,203,0.0,0.0,65,0.00,,,0.00,WSDL version 423,2013-06-27 03:08:00,
2013-06-26 23:14:00,77.1,64.8,-100.00,SSW,203,0.0,0.0,66,0.00,,,0.00,WSDL version 423,2013-06-27 03:14:00,
2013-06-26 23:20:00,77.0,64.8,-100.00,SSW,203,0.0,0.0,66,0.00,,,0.00,WSDL version 423,2013-06-27 03:20:00,
2013-06-26 23:26:00,77.0,64.8,-100.00,SSW,203,0.0,0.0,66,0.00,,,0.00,WSDL version 423,2013-06-27 03:26:00,
2013-06-26 23:32:00,77.0,64.8,-100.00,SSW,203,0.0,0.0,67,0.00,,,0.00,WSDL version 423,2013-06-27 03:32:00,
2013-06-26 23:38:00,77.0,65.2,-100.00,SSW,203,0.0,0.0,67,0.00,,,0.00,WSDL version 423,2013-06-27 03:38:00,
2013-06-26 23:44:00,76.8,65.0,-100.00,SSW,203,0.0,0.0,67,0.00,,,0.00,WSDL version 423,2013-06-27 03:44:00,
2013-06-26 23:50:00,76.8,65.0,-100.00,SSW,203,0.0,0.0,67,0.00,,,0.00,WSDL version 423,2013-06-27 03:50:00,
2013-06-26 23:56:00,76.8,65.5,-100.00,SSW,203,0.0,0.0,68,0.00,,,0.00,WSDL version 423,2013-06-27 03:56:00,